sensor_id;sensor_type;location;lat;lon;timestamp;P1;P4;P2;P0;N10;N4;N25;N1;N05;TS
78693;SPS30;68029;51.978;5.646;2023-04-25T04:22:02;6.2;6.2;6.1;5.7;;;;1.0;64.0;
78693;SPS30;68029;51.978;5.646;2023-04-25T04:24:32;5.9;5.9;5.8;5.4;;;;10.0;89.0;
78693;SPS30;68029;51.978;5.646;2023-04-25T04:27:02;6.2;6.1;6.0;5.5;;;;51.0;103.0;
78693;SPS30;68029;51.978;5.646;2023-04-25T04:29:33;4.9;4.8;4.7;4.3;;;;68.0;93.0;
78693;SPS30;68029;51.978;5.646;2023-04-25T04:32:03;4.8;4.8;4.7;4.4;;;;76.0;87.0;
78693;SPS30;68029;51.978;5.646;2023-04-25T04:34:35;5.5;5.4;5.2;4.7;;;;71.0;109.0;
78693;SPS30;68029;51.978;5.646;2023-04-25T04:37:06;4.8;4.7;4.5;4.2;;;;60.0;96.0;
78693;SPS30;68029;51.978;5.646;2023-04-25T04:39:37;5.1;5.0;4.8;4.4;;;;47.0;101.0;
78693;SPS30;68029;51.978;5.646;2023-04-25T04:42:06;4.5;4.4;4.3;3.9;;;;27.0;100.0;
78693;SPS30;68029;51.978;5.646;2023-04-25T04:44:36;4.5;4.4;4.2;3.8;;;;18.0;104.0;
78693;SPS30;68029;51.978;5.646;2023-04-25T04:47:06;3.9;3.9;3.8;3.4;;;;14.0;95.0;
78693;SPS30;68029;51.978;5.646;2023-04-25T04:49:37;3.9;3.9;3.7;3.4;;;;11.0;101.0;
78693;SPS30;68029;51.978;5.646;2023-04-25T04:52:07;4.0;3.9;3.8;3.4;;;;8.0;102.0;
78693;SPS30;68029;51.978;5.646;2023-04-25T04:54:37;4.5;4.4;4.1;3.6;;;;7.0;100.0;
78693;SPS30;68029;51.978;5.646;2023-04-25T04:57:06;4.3;4.2;4.0;3.5;;;;6.0;101.0;
78693;SPS30;68029;51.978;5.646;2023-04-25T04:59:37;4.8;4.7;4.5;4.0;;;;5.0;113.0;
78693;SPS30;68029;51.978;5.646;2023-04-25T05:02:07;5.1;5.0;4.7;4.2;;;;4.0;117.0;
78693;SPS30;68029;51.978;5.646;2023-04-25T05:04:37;4.5;4.4;4.2;3.7;;;;3.0;112.0;
78693;SPS30;68029;51.978;5.646;2023-04-25T05:07:07;4.8;4.7;4.5;4.1;;;;3.0;90.0;
78693;SPS30;68029;51.978;5.646;2023-04-25T05:09:37;4.7;4.6;4.3;3.9;;;;2.0;96.0;
78693;SPS30;68029;51.978;5.646;2023-04-25T05:12:07;4.5;4.4;4.1;3.7;;;;2.0;80.0;
78693;SPS30;68029;51.978;5.646;2023-04-25T05:14:37;5.1;5.0;4.8;4.4;;;;2.0;62.0;
78693;SPS30;68029;51.978;5.646;2023-04-25T05:17:07;4.7;4.6;4.4;4.0;;;;2.0;50.0;
78693;SPS30;68029;51.978;5.646;2023-04-25T05:19:37;3.9;3.8;3.7;3.4;;;;1.0;35.0;
78693;SPS30;68029;51.978;5.646;2023-04-25T05:22:09;4.4;4.4;4.2;3.8;;;;1.0;55.0;
78693;SPS30;68029;51.978;5.646;2023-04-25T05:24:40;4.1;4.1;3.9;3.6;;;;1.0;73.0;
78693;SPS30;68029;51.978;5.646;2023-04-25T05:27:10;4.5;4.5;4.3;3.9;;;;1.0;95.0;
78693;SPS30;68029;51.978;5.646;2023-04-25T05:29:39;4.3;4.2;4.1;3.7;;;;1.0;90.0;
78693;SPS30;68029;51.978;5.646;2023-04-25T05:32:09;3.9;3.9;3.7;3.4;;;;1.0;96.0;
78693;SPS30;68029;51.978;5.646;2023-04-25T05:34:40;4.6;4.5;4.3;3.8;;;;1.0;214.0;
78693;SPS30;68029;51.978;5.646;2023-04-25T05:37:11;3.5;3.4;3.2;2.9;;;;1.0;80.0;
78693;SPS30;68029;51.978;5.646;2023-04-25T05:39:40;4.1;4.0;3.8;3.5;;;;1.0;46.0;
78693;SPS30;68029;51.978;5.646;2023-04-25T05:42:10;4.0;3.9;3.7;3.3;;;;1.0;44.0;
78693;SPS30;68029;51.978;5.646;2023-04-25T05:44:40;3.7;3.6;3.5;3.1;;;;1.0;57.0;
78693;SPS30;68029;51.978;5.646;2023-04-25T05:47:09;3.6;3.6;3.4;3.1;;;;1.0;80.0;
78693;SPS30;68029;51.978;5.646;2023-04-25T05:49:39;3.2;3.2;3.1;2.8;;;;1.0;137.0;
78693;SPS30;68029;51.978;5.646;2023-04-25T05:52:08;4.2;4.1;4.0;3.7;;;;1.0;133.0;
78693;SPS30;68029;51.978;5.646;2023-04-25T05:54:40;4.2;4.1;4.0;3.7;;;;1.0;170.0;
78693;SPS30;68029;51.978;5.646;2023-04-25T05:57:14;4.2;4.1;4.0;3.7;;;;1.0;168.0;
78693;SPS30;68029;51.978;5.646;2023-04-25T05:59:51;3.7;3.6;3.5;3.2;;;;1.0;169.0;
78693;SPS30;68029;51.978;5.646;2023-04-25T06:02:22;3.7;3.7;3.6;3.3;;;;1.0;269.0;
78693;SPS30;68029;51.978;5.646;2023-04-25T06:04:52;4.2;4.2;4.0;3.7;;;;1.0;91.0;
78693;SPS30;68029;51.978;5.646;2023-04-25T06:07:24;3.9;3.8;3.6;3.3;;;;1.0;134.0;
78693;SPS30;68029;51.978;5.646;2023-04-25T06:09:53;4.6;4.5;4.3;3.8;;;;1.0;115.0;
78693;SPS30;68029;51.978;5.646;2023-04-25T06:12:23;3.1;3.1;3.0;2.8;;;;1.0;61.0;
78693;SPS30;68029;51.978;5.646;2023-04-25T06:14:53;3.3;3.2;3.1;2.9;;;;1.0;57.0;
78693;SPS30;68029;51.978;5.646;2023-04-25T06:17:22;3.8;3.8;3.6;3.4;;;;1.0;39.0;
78693;SPS30;68029;51.978;5.646;2023-04-25T06:19:52;3.9;3.9;3.7;3.4;;;;1.0;30.0;
78693;SPS30;68029;51.978;5.646;2023-04-25T06:22:22;3.3;3.2;3.1;2.8;;;;1.0;32.0;
78693;SPS30;68029;51.978;5.646;2023-04-25T06:24:51;4.3;4.3;4.1;3.6;;;;1.0;53.0;
78693;SPS30;68029;51.978;5.646;2023-04-25T06:27:26;3.8;3.7;3.6;3.2;;;;1.0;49.0;
78693;SPS30;68029;51.978;5.646;2023-04-25T06:29:55;4.0;3.9;3.7;3.3;;;;1.0;163.0;
78693;SPS30;68029;51.978;5.646;2023-04-25T06:32:25;4.3;4.2;4.0;3.6;;;;1.0;105.0;
78693;SPS30;68029;51.978;5.646;2023-04-25T06:34:57;4.0;3.9;3.7;3.3;;;;1.0;81.0;
78693;SPS30;68029;51.978;5.646;2023-04-25T06:37:27;3.5;3.4;3.2;2.9;;;;1.0;48.0;
78693;SPS30;68029;51.978;5.646;2023-04-25T06:39:56;3.0;2.9;2.7;2.5;;;;1.0;52.0;
78693;SPS30;68029;51.978;5.646;2023-04-25T06:42:26;3.4;3.4;3.2;2.8;;;;1.0;25.0;
78693;SPS30;68029;51.978;5.646;2023-04-25T06:44:55;3.5;3.4;3.3;2.9;;;;1.0;30.0;
78693;SPS30;68029;51.978;5.646;2023-04-25T06:47:25;3.2;3.1;2.9;2.6;;;;1.0;27.0;
78693;SPS30;68029;51.978;5.646;2023-04-25T06:49:55;3.0;2.9;2.7;2.3;;;;1.0;20.0;
78693;SPS30;68029;51.978;5.646;2023-04-25T06:52:24;3.8;3.6;3.3;2.9;;;;1.0;24.0;
78693;SPS30;68029;51.978;5.646;2023-04-25T06:54:54;3.9;3.7;3.4;2.8;;;;1.0;52.0;
78693;SPS30;68029;51.978;5.646;2023-04-25T06:57:23;3.6;3.5;3.1;2.6;;;;1.0;55.0;
78693;SPS30;68029;51.978;5.646;2023-04-25T06:59:53;4.3;4.1;3.7;3.1;;;;1.0;111.0;
78693;SPS30;68029;51.978;5.646;2023-04-25T07:02:23;3.4;3.3;3.1;2.6;;;;1.0;78.0;
78693;SPS30;68029;51.978;5.646;2023-04-25T07:04:52;3.1;3.0;2.8;2.5;;;;1.0;40.0;
78693;SPS30;68029;51.978;5.646;2023-04-25T07:07:26;2.7;2.6;2.4;2.1;;;;1.0;26.0;
78693;SPS30;68029;51.978;5.646;2023-04-25T07:09:56;4.9;4.7;4.2;3.5;;;;1.0;27.0;
78693;SPS30;68029;51.978;5.646;2023-04-25T07:12:26;3.3;3.1;2.8;2.3;;;;1.0;21.0;
78693;SPS30;68029;51.978;5.646;2023-04-25T07:14:55;2.9;2.8;2.6;2.1;;;;1.0;14.0;
78693;SPS30;68029;51.978;5.646;2023-04-25T07:17:26;4.3;4.1;3.7;3.0;;;;1.0;21.0;
78693;SPS30;68029;51.978;5.646;2023-04-25T07:19:56;3.2;3.1;2.7;2.3;;;;1.0;25.0;
78693;SPS30;68029;51.978;5.646;2023-04-25T07:22:25;3.0;2.9;2.6;2.1;;;;1.0;32.0;
78693;SPS30;68029;51.978;5.646;2023-04-25T07:24:56;3.4;3.2;2.9;2.3;;;;1.0;40.0;
78693;SPS30;68029;51.978;5.646;2023-04-25T07:27:26;3.6;3.4;3.0;2.4;;;;1.0;39.0;
78693;SPS30;68029;51.978;5.646;2023-04-25T07:29:56;3.2;3.0;2.6;2.1;;;;1.0;37.0;
78693;SPS30;68029;51.978;5.646;2023-04-25T07:32:26;3.0;2.8;2.5;2.0;;;;1.0;28.0;
78693;SPS30;68029;51.978;5.646;2023-04-25T07:34:56;3.3;3.1;2.7;2.1;;;;1.0;26.0;
78693;SPS30;68029;51.978;5.646;2023-04-25T07:37:26;3.4;3.3;2.9;2.3;;;;1.0;25.0;
78693;SPS30;68029;51.978;5.646;2023-04-25T07:39:55;3.3;3.1;2.7;2.1;;;;1.0;24.0;
78693;SPS30;68029;51.978;5.646;2023-04-25T07:42:25;3.8;3.6;3.1;2.5;;;;1.0;21.0;
78693;SPS30;68029;51.978;5.646;2023-04-25T07:44:55;3.4;3.2;2.8;2.2;;;;1.0;21.0;
78693;SPS30;68029;51.978;5.646;2023-04-25T07:47:24;3.5;3.3;3.0;2.4;;;;1.0;21.0;
78693;SPS30;68029;51.978;5.646;2023-04-25T07:49:56;3.5;3.4;3.0;2.5;;;;1.0;20.0;
78693;SPS30;68029;51.978;5.646;2023-04-25T07:52:25;3.4;3.2;2.8;2.2;;;;1.0;21.0;
78693;SPS30;68029;51.978;5.646;2023-04-25T07:54:55;3.1;3.0;2.6;2.1;;;;1.0;20.0;
78693;SPS30;68029;51.978;5.646;2023-04-25T07:57:25;3.7;3.5;3.1;2.5;;;;1.0;20.0;
78693;SPS30;68029;51.978;5.646;2023-04-25T07:59:55;3.6;3.4;2.9;2.2;;;;1.0;32.0;
78693;SPS30;68029;51.978;5.646;2023-04-25T08:02:25;3.9;3.6;3.1;2.4;;;;1.0;30.0;
78693;SPS30;68029;51.978;5.646;2023-04-25T08:04:55;4.5;4.2;3.5;2.7;;;;1.0;36.0;
78693;SPS30;68029;51.978;5.646;2023-04-25T08:07:25;3.2;3.0;2.6;1.9;;;;1.0;35.0;
78693;SPS30;68029;51.978;5.646;2023-04-25T08:09:54;3.8;3.5;3.0;2.3;;;;1.0;44.0;
78693;SPS30;68029;51.978;5.646;2023-04-25T08:12:24;3.0;2.9;2.5;1.9;;;;1.0;39.0;
78693;SPS30;68029;51.978;5.646;2023-04-25T08:14:53;3.0;2.8;2.5;2.0;;;;1.0;37.0;
78693;SPS30;68029;51.978;5.646;2023-04-25T08:17:23;3.4;3.2;2.8;2.3;;;;1.0;30.0;
78693;SPS30;68029;51.978;5.646;2023-04-25T08:19:53;3.3;3.1;2.7;2.1;;;;1.0;31.0;
78693;SPS30;68029;51.978;5.646;2023-04-25T08:22:24;2.5;2.4;2.0;1.6;;;;1.0;30.0;
78693;SPS30;68029;51.978;5.646;2023-04-25T08:24:54;3.1;2.9;2.5;2.0;;;;1.0;35.0;
78693;SPS30;68029;51.978;5.646;2023-04-25T08:27:23;2.8;2.6;2.3;1.8;;;;1.0;38.0;
78693;SPS30;68029;51.978;5.646;2023-04-25T08:29:54;3.4;3.3;2.9;2.3;;;;1.0;44.0;
78693;SPS30;68029;51.978;5.646;2023-04-25T08:32:25;2.6;2.5;2.2;1.7;;;;1.0;52.0;
78693;SPS30;68029;51.978;5.646;2023-04-25T08:34:56;2.4;2.3;2.0;1.6;;;;1.0;52.0;
78693;SPS30;68029;51.978;5.646;2023-04-25T08:37:26;2.5;2.3;2.0;1.6;;;;1.0;95.0;
78693;SPS30;68029;51.978;5.646;2023-04-25T08:39:55;3.3;3.1;2.7;2.0;;;;1.0;59.0;
78693;SPS30;68029;51.978;5.646;2023-04-25T08:42:25;2.5;2.3;2.0;1.5;;;;1.0;53.0;
78693;SPS30;68029;51.978;5.646;2023-04-25T08:45:00;2.4;2.2;1.9;1.4;;;;1.0;46.0;
78693;SPS30;68029;51.978;5.646;2023-04-25T08:47:32;2.5;2.3;1.9;1.4;;;;1.0;45.0;
78693;SPS30;68029;51.978;5.646;2023-04-25T08:50:04;2.5;2.3;1.9;1.3;;;;1.0;35.0;
78693;SPS30;68029;51.978;5.646;2023-04-25T08:52:35;3.1;2.8;2.3;1.6;;;;1.0;33.0;
78693;SPS30;68029;51.978;5.646;2023-04-25T08:55:09;2.6;2.4;2.0;1.5;;;;1.0;42.0;
78693;SPS30;68029;51.978;5.646;2023-04-25T08:57:41;2.7;2.5;2.0;1.5;;;;1.0;25.0;
78693;SPS30;68029;51.978;5.646;2023-04-25T09:00:12;2.6;2.4;2.0;1.4;;;;1.0;22.0;
78693;SPS30;68029;51.978;5.646;2023-04-25T09:02:43;2.1;2.0;1.7;1.3;;;;1.0;47.0;
78693;SPS30;68029;51.978;5.646;2023-04-25T09:05:15;3.2;3.0;2.6;1.9;;;;1.0;85.0;
78693;SPS30;68029;51.978;5.646;2023-04-25T09:07:47;2.3;2.2;1.9;1.5;;;;1.0;55.0;
78693;SPS30;68029;51.978;5.646;2023-04-25T09:10:16;2.3;2.1;1.8;1.3;;;;1.0;54.0;
78693;SPS30;68029;51.978;5.646;2023-04-25T09:12:46;1.9;1.8;1.6;1.2;;;;1.0;27.0;
78693;SPS30;68029;51.978;5.646;2023-04-25T09:15:40;1.5;1.4;1.2;1.0;;;;1.0;29.0;
78693;SPS30;68029;51.978;5.646;2023-04-25T09:18:24;1.5;1.4;1.2;1.0;;;;1.0;17.0;
78693;SPS30;68029;51.978;5.646;2023-04-25T09:20:55;2.0;1.9;1.7;1.4;;;;1.0;21.0;
78693;SPS30;68029;51.978;5.646;2023-04-25T09:23:27;2.1;2.0;1.8;1.5;;;;1.0;24.0;
78693;SPS30;68029;51.978;5.646;2023-04-25T09:25:57;1.8;1.7;1.5;1.2;;;;1.0;29.0;
78693;SPS30;68029;51.978;5.646;2023-04-25T09:28:27;1.9;1.8;1.6;1.3;;;;1.0;29.0;
78693;SPS30;68029;51.978;5.646;2023-04-25T09:30:57;1.6;1.5;1.3;1.1;;;;1.0;22.0;
78693;SPS30;68029;51.978;5.646;2023-04-25T09:33:32;1.7;1.6;1.4;1.2;;;;1.0;13.0;
78693;SPS30;68029;51.978;5.646;2023-04-25T09:36:04;2.2;2.0;1.8;1.4;;;;1.0;9.0;
78693;SPS30;68029;51.978;5.646;2023-04-25T09:38:42;1.8;1.7;1.5;1.2;;;;1.0;9.0;
78693;SPS30;68029;51.978;5.646;2023-04-25T09:41:13;1.8;1.7;1.5;1.1;;;;1.0;12.0;
78693;SPS30;68029;51.978;5.646;2023-04-25T09:43:56;2.0;1.8;1.6;1.2;;;;1.0;15.0;
78693;SPS30;68029;51.978;5.646;2023-04-25T09:46:32;2.2;2.1;1.8;1.4;;;;1.0;15.0;
78693;SPS30;68029;51.978;5.646;2023-04-25T09:49:05;1.8;1.7;1.5;1.1;;;;1.0;15.0;
78693;SPS30;68029;51.978;5.646;2023-04-25T09:51:36;2.0;1.9;1.6;1.2;;;;1.0;20.0;
78693;SPS30;68029;51.978;5.646;2023-04-25T09:54:07;1.9;1.8;1.5;1.2;;;;1.0;31.0;
78693;SPS30;68029;51.978;5.646;2023-04-25T09:56:37;1.9;1.8;1.5;1.1;;;;1.0;34.0;
78693;SPS30;68029;51.978;5.646;2023-04-25T09:59:08;1.8;1.7;1.4;1.1;;;;1.0;47.0;
78693;SPS30;68029;51.978;5.646;2023-04-25T10:01:40;2.3;2.1;1.8;1.3;;;;1.0;61.0;
78693;SPS30;68029;51.978;5.646;2023-04-25T10:04:13;2.4;2.2;1.9;1.4;;;;1.0;76.0;
78693;SPS30;68029;51.978;5.646;2023-04-25T10:06:49;2.5;2.3;1.9;1.3;;;;1.0;93.0;
78693;SPS30;68029;51.978;5.646;2023-04-25T10:09:23;3.0;2.8;2.3;1.6;;;;1.0;84.0;
78693;SPS30;68029;51.978;5.646;2023-04-25T10:11:57;2.2;2.1;1.7;1.2;;;;1.0;95.0;
78693;SPS30;68029;51.978;5.646;2023-04-25T10:14:28;2.5;2.3;1.9;1.3;;;;1.0;88.0;
78693;SPS30;68029;51.978;5.646;2023-04-25T10:17:00;2.5;2.3;1.9;1.3;;;;1.0;74.0;
78693;SPS30;68029;51.978;5.646;2023-04-25T10:19:31;2.1;2.0;1.6;1.2;;;;1.0;52.0;
78693;SPS30;68029;51.978;5.646;2023-04-25T10:22:05;2.8;2.6;2.2;1.6;;;;1.0;56.0;
78693;SPS30;68029;51.978;5.646;2023-04-25T10:24:37;2.0;1.9;1.6;1.2;;;;1.0;45.0;
78693;SPS30;68029;51.978;5.646;2023-04-25T10:27:08;2.9;2.7;2.3;1.7;;;;1.0;46.0;
78693;SPS30;68029;51.978;5.646;2023-04-25T10:29:39;2.2;2.0;1.7;1.3;;;;1.0;56.0;
78693;SPS30;68029;51.978;5.646;2023-04-25T10:32:13;2.4;2.2;1.9;1.4;;;;1.0;69.0;
78693;SPS30;68029;51.978;5.646;2023-04-25T10:34:43;2.1;2.0;1.7;1.3;;;;1.0;47.0;
78693;SPS30;68029;51.978;5.646;2023-04-25T10:37:15;2.1;1.9;1.6;1.2;;;;1.0;42.0;
78693;SPS30;68029;51.978;5.646;2023-04-25T10:39:45;1.9;1.8;1.5;1.1;;;;1.0;23.0;
78693;SPS30;68029;51.978;5.646;2023-04-25T10:42:15;2.3;2.2;1.8;1.4;;;;1.0;25.0;
78693;SPS30;68029;51.978;5.646;2023-04-25T10:45:00;2.1;1.9;1.6;1.2;;;;1.0;23.0;
78693;SPS30;68029;51.978;5.646;2023-04-25T10:47:38;2.2;2.0;1.7;1.3;;;;1.0;19.0;
78693;SPS30;68029;51.978;5.646;2023-04-25T10:50:15;2.4;2.2;1.9;1.4;;;;1.0;23.0;
78693;SPS30;68029;51.978;5.646;2023-04-25T10:52:45;1.5;1.4;1.2;0.9;;;;1.0;25.0;
78693;SPS30;68029;51.978;5.646;2023-04-25T10:55:15;2.1;1.9;1.6;1.2;;;;1.0;28.0;
78693;SPS30;68029;51.978;5.646;2023-04-25T10:57:45;1.9;1.8;1.5;1.1;;;;1.0;23.0;
78693;SPS30;68029;51.978;5.646;2023-04-25T11:00:18;1.5;1.4;1.2;0.9;;;;1.0;24.0;
78693;SPS30;68029;51.978;5.646;2023-04-25T11:02:51;1.8;1.7;1.4;1.0;;;;1.0;25.0;
78693;SPS30;68029;51.978;5.646;2023-04-25T11:05:23;1.7;1.6;1.3;1.0;;;;1.0;29.0;
78693;SPS30;68029;51.978;5.646;2023-04-25T11:07:59;1.9;1.8;1.6;1.2;;;;1.0;29.0;
78693;SPS30;68029;51.978;5.646;2023-04-25T11:10:31;2.0;1.9;1.6;1.2;;;;1.0;43.0;
78693;SPS30;68029;51.978;5.646;2023-04-25T11:13:03;1.9;1.8;1.5;1.2;;;;1.0;43.0;
78693;SPS30;68029;51.978;5.646;2023-04-25T11:15:34;1.8;1.7;1.4;1.1;;;;1.0;42.0;
78693;SPS30;68029;51.978;5.646;2023-04-25T11:18:03;2.1;2.0;1.7;1.3;;;;1.0;46.0;
78693;SPS30;68029;51.978;5.646;2023-04-25T11:20:33;1.8;1.7;1.5;1.1;;;;1.0;53.0;
78693;SPS30;68029;51.978;5.646;2023-04-25T11:23:03;1.8;1.7;1.4;1.1;;;;1.0;49.0;
78693;SPS30;68029;51.978;5.646;2023-04-25T11:25:33;1.7;1.6;1.4;1.1;;;;1.0;43.0;
78693;SPS30;68029;51.978;5.646;2023-04-25T11:28:03;1.6;1.5;1.3;1.0;;;;1.0;37.0;
78693;SPS30;68029;51.978;5.646;2023-04-25T11:30:33;1.6;1.5;1.3;1.0;;;;1.0;39.0;
78693;SPS30;68029;51.978;5.646;2023-04-25T11:33:03;1.9;1.8;1.5;1.1;;;;1.0;34.0;
78693;SPS30;68029;51.978;5.646;2023-04-25T11:35:33;2.7;2.5;2.2;1.7;;;;1.0;35.0;
78693;SPS30;68029;51.978;5.646;2023-04-25T11:38:03;1.6;1.5;1.3;1.0;;;;1.0;39.0;
78693;SPS30;68029;51.978;5.646;2023-04-25T11:40:34;1.5;1.4;1.2;0.9;;;;1.0;58.0;
78693;SPS30;68029;51.978;5.646;2023-04-25T11:43:07;1.8;1.7;1.4;1.1;;;;1.0;80.0;
78693;SPS30;68029;51.978;5.646;2023-04-25T11:45:38;2.1;2.0;1.7;1.3;;;;1.0;86.0;
78693;SPS30;68029;51.978;5.646;2023-04-25T11:48:09;1.5;1.4;1.2;0.9;;;;1.0;115.0;
78693;SPS30;68029;51.978;5.646;2023-04-25T11:50:40;1.9;1.8;1.5;1.2;;;;1.0;112.0;
78693;SPS30;68029;51.978;5.646;2023-04-25T11:53:10;2.2;2.1;1.8;1.4;;;;1.0;110.0;
78693;SPS30;68029;51.978;5.646;2023-04-25T11:55:41;2.0;1.9;1.6;1.3;;;;1.0;154.0;
78693;SPS30;68029;51.978;5.646;2023-04-25T11:58:12;2.0;1.9;1.7;1.3;;;;1.0;162.0;
78693;SPS30;68029;51.978;5.646;2023-04-25T12:00:43;2.6;2.4;2.1;1.6;;;;1.0;132.0;
78693;SPS30;68029;51.978;5.646;2023-04-25T12:03:13;2.1;2.0;1.7;1.3;;;;1.0;95.0;
78693;SPS30;68029;51.978;5.646;2023-04-25T12:05:46;1.8;1.7;1.5;1.2;;;;1.0;122.0;
78693;SPS30;68029;51.978;5.646;2023-04-25T12:08:15;1.7;1.6;1.4;1.2;;;;1.0;72.0;
78693;SPS30;68029;51.978;5.646;2023-04-25T12:10:46;1.8;1.7;1.5;1.3;;;;1.0;85.0;
78693;SPS30;68029;51.978;5.646;2023-04-25T12:13:22;2.2;2.1;1.8;1.5;;;;1.0;82.0;
78693;SPS30;68029;51.978;5.646;2023-04-25T12:15:55;1.9;1.8;1.6;1.4;;;;1.0;66.0;
78693;SPS30;68029;51.978;5.646;2023-04-25T12:18:25;2.0;1.9;1.7;1.4;;;;1.0;69.0;
78693;SPS30;68029;51.978;5.646;2023-04-25T12:20:57;1.6;1.5;1.4;1.2;;;;1.0;67.0;
78693;SPS30;68029;51.978;5.646;2023-04-25T12:23:31;1.6;1.5;1.4;1.2;;;;1.0;54.0;
78693;SPS30;68029;51.978;5.646;2023-04-25T12:26:01;3.3;3.1;2.7;2.1;;;;1.0;54.0;
78693;SPS30;68029;51.978;5.646;2023-04-25T12:28:32;2.5;2.3;2.0;1.6;;;;1.0;62.0;
78693;SPS30;68029;51.978;5.646;2023-04-25T12:31:02;2.0;1.9;1.6;1.3;;;;1.0;97.0;
78693;SPS30;68029;51.978;5.646;2023-04-25T12:33:34;9.0;8.1;6.2;3.8;;;;1.0;112.0;
78693;SPS30;68029;51.978;5.646;2023-04-25T12:36:06;5.5;4.9;3.4;1.7;;;;1.0;115.0;
78693;SPS30;68029;51.978;5.646;2023-04-25T12:38:39;2.7;2.4;1.8;1.0;;;;1.0;112.0;
78693;SPS30;68029;51.978;5.646;2023-04-25T12:41:10;3.2;2.9;2.1;1.2;;;;1.0;57.0;
78693;SPS30;68029;51.978;5.646;2023-04-25T12:43:40;3.0;2.7;2.0;1.3;;;;1.0;57.0;
78693;SPS30;68029;51.978;5.646;2023-04-25T12:46:10;2.8;2.5;1.9;1.2;;;;1.0;63.0;
78693;SPS30;68029;51.978;5.646;2023-04-25T12:48:39;2.7;2.4;1.9;1.2;;;;1.0;49.0;
78693;SPS30;68029;51.978;5.646;2023-04-25T12:51:09;2.7;2.4;2.0;1.4;;;;1.0;57.0;
78693;SPS30;68029;51.978;5.646;2023-04-25T12:53:39;2.7;2.5;2.1;1.5;;;;1.0;66.0;
78693;SPS30;68029;51.978;5.646;2023-04-25T12:56:09;3.1;2.9;2.4;1.7;;;;1.0;95.0;
78693;SPS30;68029;51.978;5.646;2023-04-25T12:58:39;2.7;2.5;2.1;1.5;;;;1.0;110.0;
78693;SPS30;68029;51.978;5.646;2023-04-25T13:01:11;2.0;1.9;1.7;1.3;;;;1.0;102.0;
78693;SPS30;68029;51.978;5.646;2023-04-25T13:03:41;1.8;1.7;1.5;1.2;;;;1.0;110.0;
78693;SPS30;68029;51.978;5.646;2023-04-25T13:06:12;1.5;1.4;1.3;1.0;;;;1.0;97.0;
78693;SPS30;68029;51.978;5.646;2023-04-25T13:08:44;1.8;1.7;1.5;1.1;;;;1.0;77.0;
78693;SPS30;68029;51.978;5.646;2023-04-25T13:11:15;2.3;2.1;1.8;1.4;;;;1.0;66.0;
78693;SPS30;68029;51.978;5.646;2023-04-25T13:13:45;2.0;1.9;1.6;1.3;;;;1.0;59.0;
78693;SPS30;68029;51.978;5.646;2023-04-25T13:16:15;1.8;1.7;1.5;1.2;;;;1.0;58.0;
78693;SPS30;68029;51.978;5.646;2023-04-25T13:18:47;1.5;1.4;1.3;1.1;;;;1.0;43.0;
78693;SPS30;68029;51.978;5.646;2023-04-25T13:21:17;1.7;1.6;1.5;1.2;;;;1.0;47.0;
78693;SPS30;68029;51.978;5.646;2023-04-25T13:23:47;2.0;1.9;1.8;1.5;;;;1.0;51.0;
78693;SPS30;68029;51.978;5.646;2023-04-25T13:26:17;1.2;1.2;1.1;1.0;;;;1.0;53.0;
78693;SPS30;68029;51.978;5.646;2023-04-25T13:28:47;1.5;1.5;1.4;1.2;;;;1.0;56.0;
78693;SPS30;68029;51.978;5.646;2023-04-25T13:31:17;2.0;1.9;1.8;1.5;;;;1.0;71.0;
78693;SPS30;68029;51.978;5.646;2023-04-25T13:33:46;1.8;1.7;1.5;1.3;;;;1.0;85.0;
78693;SPS30;68029;51.978;5.646;2023-04-25T13:36:16;1.8;1.7;1.6;1.3;;;;1.0;97.0;
78693;SPS30;68029;51.978;5.646;2023-04-25T13:38:46;1.6;1.6;1.4;1.2;;;;1.0;105.0;
78693;SPS30;68029;51.978;5.646;2023-04-25T13:41:16;1.7;1.6;1.5;1.2;;;;1.0;137.0;
78693;SPS30;68029;51.978;5.646;2023-04-25T13:43:47;1.9;1.8;1.7;1.4;;;;1.0;166.0;
78693;SPS30;68029;51.978;5.646;2023-04-25T13:46:17;1.7;1.6;1.5;1.2;;;;1.0;132.0;
78693;SPS30;68029;51.978;5.646;2023-04-25T13:48:47;1.2;1.1;1.0;0.8;;;;1.0;118.0;
78693;SPS30;68029;51.978;5.646;2023-04-25T13:51:17;1.3;1.2;1.1;0.9;;;;1.0;79.0;
78693;SPS30;68029;51.978;5.646;2023-04-25T13:53:48;2.0;1.9;1.8;1.5;;;;1.0;96.0;
78693;SPS30;68029;51.978;5.646;2023-04-25T13:56:18;1.3;1.3;1.2;1.0;;;;1.0;118.0;
78693;SPS30;68029;51.978;5.646;2023-04-25T13:58:49;1.2;1.1;1.0;0.9;;;;1.0;77.0;
78693;SPS30;68029;51.978;5.646;2023-04-25T14:01:20;1.4;1.3;1.2;1.0;;;;1.0;83.0;
78693;SPS30;68029;51.978;5.646;2023-04-25T14:03:52;2.4;2.3;2.0;1.7;;;;1.0;107.0;
78693;SPS30;68029;51.978;5.646;2023-04-25T14:06:22;2.2;2.1;1.9;1.5;;;;1.0;109.0;
78693;SPS30;68029;51.978;5.646;2023-04-25T14:08:52;2.1;2.0;1.8;1.4;;;;1.0;116.0;
78693;SPS30;68029;51.978;5.646;2023-04-25T14:11:23;2.0;1.9;1.6;1.2;;;;1.0;94.0;
78693;SPS30;68029;51.978;5.646;2023-04-25T14:13:53;2.2;2.1;1.8;1.4;;;;1.0;74.0;
78693;SPS30;68029;51.978;5.646;2023-04-25T14:16:22;1.6;1.5;1.3;1.1;;;;1.0;88.0;
78693;SPS30;68029;51.978;5.646;2023-04-25T14:18:52;1.6;1.5;1.3;1.1;;;;1.0;64.0;
78693;SPS30;68029;51.978;5.646;2023-04-25T14:21:23;2.3;2.2;1.9;1.6;;;;1.0;58.0;
78693;SPS30;68029;51.978;5.646;2023-04-25T14:23:54;2.1;2.0;1.8;1.5;;;;1.0;51.0;
78693;SPS30;68029;51.978;5.646;2023-04-25T14:26:23;2.3;2.2;2.0;1.6;;;;1.0;50.0;
78693;SPS30;68029;51.978;5.646;2023-04-25T14:28:53;1.9;1.8;1.6;1.3;;;;1.0;56.0;
78693;SPS30;68029;51.978;5.646;2023-04-25T14:31:23;1.7;1.6;1.5;1.2;;;;1.0;74.0;
78693;SPS30;68029;51.978;5.646;2023-04-25T14:33:53;2.0;1.9;1.7;1.4;;;;1.0;81.0;
78693;SPS30;68029;51.978;5.646;2023-04-25T14:36:23;2.0;1.9;1.7;1.5;;;;1.0;74.0;
78693;SPS30;68029;51.978;5.646;2023-04-25T14:38:53;2.3;2.2;2.0;1.7;;;;1.0;73.0;
78693;SPS30;68029;51.978;5.646;2023-04-25T14:41:24;1.3;1.2;1.1;1.0;;;;1.0;109.0;
78693;SPS30;68029;51.978;5.646;2023-04-25T14:43:54;1.8;1.8;1.6;1.4;;;;1.0;96.0;
78693;SPS30;68029;51.978;5.646;2023-04-25T14:46:24;1.8;1.7;1.6;1.3;;;;1.0;86.0;
78693;SPS30;68029;51.978;5.646;2023-04-25T14:48:56;2.2;2.1;1.9;1.6;;;;1.0;57.0;
78693;SPS30;68029;51.978;5.646;2023-04-25T14:51:28;2.2;2.2;2.0;1.8;;;;1.0;47.0;
78693;SPS30;68029;51.978;5.646;2023-04-25T14:53:58;2.0;2.0;1.9;1.6;;;;1.0;36.0;
78693;SPS30;68029;51.978;5.646;2023-04-25T14:56:28;1.9;1.9;1.8;1.6;;;;1.0;39.0;
78693;SPS30;68029;51.978;5.646;2023-04-25T14:58:58;2.1;2.0;1.9;1.7;;;;1.0;34.0;
78693;SPS30;68029;51.978;5.646;2023-04-25T15:01:27;1.8;1.7;1.7;1.5;;;;1.0;39.0;
78693;SPS30;68029;51.978;5.646;2023-04-25T15:03:58;1.8;1.7;1.6;1.5;;;;1.0;32.0;
78693;SPS30;68029;51.978;5.646;2023-04-25T15:06:27;1.9;1.9;1.8;1.6;;;;1.0;37.0;
78693;SPS30;68029;51.978;5.646;2023-04-25T15:08:57;1.7;1.6;1.5;1.4;;;;1.0;38.0;
78693;SPS30;68029;51.978;5.646;2023-04-25T15:11:27;2.2;2.2;2.0;1.8;;;;1.0;35.0;
78693;SPS30;68029;51.978;5.646;2023-04-25T15:13:57;2.1;2.1;2.0;1.7;;;;1.0;33.0;
78693;SPS30;68029;51.978;5.646;2023-04-25T15:16:26;1.8;1.8;1.7;1.5;;;;1.0;35.0;
78693;SPS30;68029;51.978;5.646;2023-04-25T15:18:58;1.8;1.8;1.7;1.5;;;;1.0;33.0;
78693;SPS30;68029;51.978;5.646;2023-04-25T15:21:31;1.6;1.5;1.5;1.3;;;;1.0;33.0;
78693;SPS30;68029;51.978;5.646;2023-04-25T15:24:02;1.6;1.6;1.5;1.4;;;;1.0;34.0;
78693;SPS30;68029;51.978;5.646;2023-04-25T15:26:32;2.2;2.1;2.0;1.8;;;;1.0;41.0;
78693;SPS30;68029;51.978;5.646;2023-04-25T15:29:03;2.3;2.2;2.1;1.8;;;;1.0;39.0;
78693;SPS30;68029;51.978;5.646;2023-04-25T15:31:33;1.8;1.7;1.6;1.4;;;;1.0;33.0;
78693;SPS30;68029;51.978;5.646;2023-04-25T15:34:03;2.0;2.0;1.8;1.6;;;;1.0;41.0;
78693;SPS30;68029;51.978;5.646;2023-04-25T15:36:33;1.9;1.8;1.7;1.5;;;;1.0;54.0;
78693;SPS30;68029;51.978;5.646;2023-04-25T15:39:02;2.2;2.1;2.0;1.8;;;;1.0;43.0;
78693;SPS30;68029;51.978;5.646;2023-04-25T15:41:32;2.2;2.2;2.1;1.9;;;;1.0;41.0;
78693;SPS30;68029;51.978;5.646;2023-04-25T15:44:02;1.8;1.7;1.6;1.4;;;;1.0;39.0;
78693;SPS30;68029;51.978;5.646;2023-04-25T15:46:32;1.7;1.6;1.6;1.4;;;;1.0;43.0;
78693;SPS30;68029;51.978;5.646;2023-04-25T15:49:03;1.8;1.7;1.7;1.5;;;;1.0;43.0;
78693;SPS30;68029;51.978;5.646;2023-04-25T15:51:33;1.8;1.8;1.7;1.5;;;;1.0;45.0;
78693;SPS30;68029;51.978;5.646;2023-04-25T15:54:05;1.7;1.6;1.6;1.4;;;;1.0;44.0;
78693;SPS30;68029;51.978;5.646;2023-04-25T15:56:35;1.5;1.4;1.4;1.3;;;;1.0;34.0;
78693;SPS30;68029;51.978;5.646;2023-04-25T15:59:04;1.8;1.8;1.7;1.6;;;;1.0;69.0;
78693;SPS30;68029;51.978;5.646;2023-04-25T16:01:34;1.5;1.5;1.5;1.4;;;;1.0;59.0;
78693;SPS30;68029;51.978;5.646;2023-04-25T16:04:06;1.5;1.5;1.4;1.3;;;;1.0;61.0;
78693;SPS30;68029;51.978;5.646;2023-04-25T16:06:36;2.0;1.9;1.9;1.7;;;;1.0;42.0;
78693;SPS30;68029;51.978;5.646;2023-04-25T16:09:06;1.6;1.5;1.5;1.3;;;;1.0;43.0;
78693;SPS30;68029;51.978;5.646;2023-04-25T16:11:36;1.7;1.6;1.6;1.4;;;;1.0;43.0;
78693;SPS30;68029;51.978;5.646;2023-04-25T16:14:07;2.3;2.2;2.1;1.9;;;;1.0;35.0;
78693;SPS30;68029;51.978;5.646;2023-04-25T16:16:37;2.4;2.4;2.2;2.0;;;;1.0;18.0;
78693;SPS30;68029;51.978;5.646;2023-04-25T16:19:06;2.0;1.9;1.8;1.6;;;;1.0;23.0;
78693;SPS30;68029;51.978;5.646;2023-04-25T16:21:36;2.0;1.9;1.8;1.6;;;;1.0;27.0;
78693;SPS30;68029;51.978;5.646;2023-04-25T16:24:08;2.0;2.0;1.9;1.7;;;;1.0;22.0;
78693;SPS30;68029;51.978;5.646;2023-04-25T16:26:38;2.2;2.2;2.1;1.9;;;;1.0;23.0;
78693;SPS30;68029;51.978;5.646;2023-04-25T16:29:10;2.0;2.0;1.9;1.7;;;;1.0;40.0;
78693;SPS30;68029;51.978;5.646;2023-04-25T16:31:43;2.1;2.1;2.0;1.7;;;;1.0;28.0;
78693;SPS30;68029;51.978;5.646;2023-04-25T16:34:14;2.0;1.9;1.8;1.6;;;;1.0;21.0;
78693;SPS30;68029;51.978;5.646;2023-04-25T16:36:44;1.8;1.8;1.7;1.5;;;;1.0;15.0;
78693;SPS30;68029;51.978;5.646;2023-04-25T16:39:15;2.0;1.9;1.8;1.7;;;;1.0;12.0;
78693;SPS30;68029;51.978;5.646;2023-04-25T16:41:48;1.7;1.7;1.7;1.5;;;;1.0;12.0;
78693;SPS30;68029;51.978;5.646;2023-04-25T16:44:18;2.1;2.1;2.0;1.8;;;;1.0;13.0;
78693;SPS30;68029;51.978;5.646;2023-04-25T16:46:47;2.1;2.0;1.9;1.8;;;;1.0;23.0;
78693;SPS30;68029;51.978;5.646;2023-04-25T16:49:17;2.1;2.1;2.0;1.8;;;;1.0;100.0;